createdAt,value
2023-01-17T00:02:12.287Z,9.45
2023-01-17T00:04:57.965Z,8.50
2023-01-17T00:07:44.008Z,6.97
2023-01-17T00:10:12.507Z,10.60
2023-01-17T00:12:39.505Z,7.65
2023-01-17T00:15:06.950Z,8.40
2023-01-17T00:17:33.770Z,7.47
2023-01-17T00:20:20.295Z,8.85
2023-01-17T00:23:05.922Z,7.15
2023-01-17T00:25:52.589Z,8.73
2023-01-17T00:28:19.680Z,11.70
2023-01-17T00:30:46.493Z,10.32
2023-01-17T00:33:13.326Z,9.65
2023-01-17T00:35:40.200Z,11.10
2023-01-17T00:38:08.231Z,9.90
2023-01-17T00:40:35.866Z,8.80
2023-01-17T00:43:21.389Z,10.95
2023-01-17T00:46:07.137Z,10.05
2023-01-17T00:48:52.875Z,13.00
2023-01-17T00:51:38.690Z,10.05
2023-01-17T00:54:24.388Z,10.45
2023-01-17T00:57:10.007Z,10.82
2023-01-17T00:59:56.561Z,10.45
2023-01-17T01:02:42.616Z,14.43
2023-01-17T01:05:28.834Z,13.25
2023-01-17T01:08:15.020Z,16.13
2023-01-17T01:11:01.105Z,11.82
2023-01-17T01:13:47.799Z,11.20
2023-01-17T01:16:33.513Z,12.23
2023-01-17T01:19:19.158Z,14.38
2023-01-17T01:22:04.417Z,10.57
2023-01-17T01:24:49.956Z,10.68
2023-01-17T01:27:35.219Z,9.95
2023-01-17T01:30:20.758Z,10.77
2023-01-17T01:33:06.267Z,13.27
2023-01-17T01:35:33.125Z,10.65
2023-01-17T01:38:01.871Z,12.52
2023-01-17T01:40:28.649Z,13.90
2023-01-17T01:42:56.734Z,11.88
2023-01-17T01:45:25.078Z,10.68
2023-01-17T01:47:53.990Z,10.50
2023-01-17T01:50:21.332Z,14.13
2023-01-17T01:52:50.682Z,9.50
2023-01-17T01:55:19.495Z,12.73
2023-01-17T01:57:49.213Z,11.02
2023-01-17T02:00:17.658Z,12.20
2023-01-17T02:02:45.717Z,11.95
2023-01-17T02:05:13.678Z,10.38
2023-01-17T02:07:45.753Z,9.52
2023-01-17T02:10:12.902Z,11.73
2023-01-17T02:12:40.033Z,12.40
2023-01-17T02:15:07.721Z,11.07
2023-01-17T02:17:53.490Z,10.63
2023-01-17T02:20:32.660Z,12.32
2023-01-17T02:23:18.134Z,10.85
2023-01-17T02:25:47.991Z,9.85
2023-01-17T02:28:30.213Z,10.82
2023-01-17T02:31:08.629Z,12.00
2023-01-17T02:33:39.176Z,12.82
2023-01-17T02:36:06.323Z,11.65
2023-01-17T02:38:39.420Z,12.73
2023-01-17T02:41:15.437Z,11.57
2023-01-17T02:43:42.328Z,10.88
2023-01-17T02:46:09.979Z,11.40
2023-01-17T02:48:37.568Z,11.80
2023-01-17T02:51:24.901Z,12.30
2023-01-17T02:54:03.881Z,10.70
2023-01-17T02:56:36.890Z,9.10
2023-01-17T02:59:14.064Z,8.68
2023-01-17T03:01:59.646Z,9.98
2023-01-17T03:04:38.154Z,8.40
2023-01-17T03:09:32.379Z,8.70
2023-01-17T03:12:00.331Z,7.05
2023-01-17T03:14:30.125Z,7.70
2023-01-17T03:16:56.959Z,7.10
2023-01-17T03:19:23.744Z,10.57
2023-01-17T03:21:50.571Z,9.20
2023-01-17T03:24:17.356Z,10.18
2023-01-17T03:26:45.088Z,11.75
2023-01-17T03:29:11.939Z,7.55
2023-01-17T03:31:38.735Z,8.60
2023-01-17T03:34:05.603Z,9.32
2023-01-17T03:36:32.435Z,9.35
2023-01-17T03:38:59.226Z,8.90
2023-01-17T03:41:26.059Z,9.73
2023-01-17T03:43:52.876Z,11.40
2023-01-17T03:46:23.863Z,9.98
2023-01-17T03:48:51.076Z,9.68
2023-01-17T03:51:18.417Z,11.88
2023-01-17T03:53:47.041Z,9.18
2023-01-17T03:56:14.517Z,9.70
2023-01-17T03:58:41.396Z,8.25
2023-01-17T04:01:08.313Z,11.98
2023-01-17T04:03:35.243Z,9.70
2023-01-17T04:06:02.030Z,9.50
2023-01-17T04:08:29.428Z,9.25
2023-01-17T04:10:56.476Z,8.93
2023-01-17T04:13:23.322Z,9.95
2023-01-17T04:15:51.174Z,9.52
2023-01-17T04:18:19.154Z,10.75
2023-01-17T04:20:46.072Z,10.57
2023-01-17T04:23:12.921Z,10.10
2023-01-17T04:25:39.709Z,10.55
2023-01-17T04:28:06.564Z,9.15
2023-01-17T04:30:33.491Z,9.43
2023-01-17T04:33:00.322Z,9.98
2023-01-17T04:35:27.213Z,12.43
2023-01-17T04:37:54.005Z,7.00
2023-01-17T04:40:20.862Z,9.70
2023-01-17T04:42:47.986Z,9.25
2023-01-17T04:45:15.326Z,8.85
2023-01-17T04:47:42.106Z,9.27
2023-01-17T04:50:09.582Z,7.13
2023-01-17T04:52:36.406Z,10.18
2023-01-17T04:55:03.301Z,10.63
2023-01-17T04:57:30.121Z,8.07
2023-01-17T04:59:56.924Z,8.75
2023-01-17T05:02:23.735Z,8.77
2023-01-17T05:04:50.670Z,8.00
2023-01-17T05:07:17.523Z,12.48
2023-01-17T05:09:44.281Z,9.23
2023-01-17T05:12:11.134Z,10.00
2023-01-17T05:14:37.889Z,10.02
2023-01-17T05:17:04.711Z,7.78
2023-01-17T05:19:31.687Z,8.85
2023-01-17T05:22:04.142Z,9.82
2023-01-17T05:24:31.549Z,8.20
2023-01-17T05:27:03.117Z,7.53
2023-01-17T05:29:30.665Z,8.68
2023-01-17T05:31:57.903Z,9.25
2023-01-17T05:34:24.749Z,9.07
2023-01-17T05:36:51.636Z,9.15
2023-01-17T05:39:18.488Z,6.53
2023-01-17T05:41:45.348Z,7.53
2023-01-17T05:44:12.241Z,5.68
2023-01-17T05:46:39.037Z,5.88
2023-01-17T05:49:05.884Z,8.02
2023-01-17T05:51:33.022Z,9.13
2023-01-17T05:53:59.803Z,13.90
2023-01-17T05:56:26.643Z,8.90
2023-01-17T05:58:53.440Z,7.55
2023-01-17T06:01:20.324Z,7.35
2023-01-17T06:03:47.126Z,7.60
2023-01-17T06:06:13.967Z,8.32
2023-01-17T06:08:40.908Z,7.72
2023-01-17T06:11:07.705Z,6.47
2023-01-17T06:13:34.482Z,7.05
2023-01-17T06:16:03.016Z,8.10
2023-01-17T06:18:30.304Z,7.40
2023-01-17T06:20:57.709Z,5.35
2023-01-17T06:23:24.974Z,8.35
2023-01-17T06:25:52.164Z,9.52
2023-01-17T06:28:20.605Z,9.82
2023-01-17T06:30:47.781Z,9.57
2023-01-17T06:33:14.774Z,10.95
2023-01-17T06:35:51.722Z,7.55
2023-01-17T06:38:18.603Z,11.45
2023-01-17T06:40:45.450Z,9.50
2023-01-17T06:43:12.271Z,8.50
2023-01-17T06:45:39.195Z,8.95
2023-01-17T06:48:06.217Z,7.75
2023-01-17T06:50:33.411Z,9.23
2023-01-17T06:53:02.044Z,6.43
2023-01-17T06:55:29.598Z,12.07
2023-01-17T06:57:57.394Z,8.48
2023-01-17T07:00:24.487Z,7.22
2023-01-17T07:02:51.736Z,7.38
2023-01-17T07:05:18.724Z,7.50
2023-01-17T07:07:45.983Z,8.10
2023-01-17T07:10:13.389Z,6.25
2023-01-17T07:12:40.257Z,7.45
2023-01-17T07:15:07.797Z,5.78
2023-01-17T07:17:35.211Z,9.45
2023-01-17T07:20:02.068Z,8.50
2023-01-17T07:22:28.939Z,10.40
2023-01-17T07:24:58.783Z,8.05
2023-01-17T07:27:27.773Z,10.15
2023-01-17T07:29:54.644Z,8.73
2023-01-17T07:32:21.547Z,9.13
2023-01-17T07:34:48.902Z,7.88
2023-01-17T07:37:15.749Z,9.25
2023-01-17T07:39:42.588Z,9.23
2023-01-17T07:42:09.403Z,7.15
2023-01-17T07:44:36.244Z,6.65
2023-01-17T07:47:04.380Z,8.98
2023-01-17T07:49:31.231Z,7.07
2023-01-17T07:51:58.095Z,8.57
2023-01-17T07:54:24.936Z,7.25
2023-01-17T07:56:51.750Z,6.45
2023-01-17T07:59:18.583Z,6.20
2023-01-17T08:01:45.565Z,8.68
2023-01-17T08:04:14.189Z,5.63
2023-01-17T08:06:43.019Z,6.70
2023-01-17T08:09:09.813Z,5.32
2023-01-17T08:11:36.601Z,5.45
2023-01-17T08:14:03.389Z,5.63
2023-01-17T08:16:30.295Z,7.28
2023-01-17T08:18:57.464Z,6.28
2023-01-17T08:21:24.451Z,7.78
2023-01-17T08:23:51.703Z,5.82
2023-01-17T08:26:22.422Z,5.60
2023-01-17T08:28:50.177Z,7.07
2023-01-17T08:31:17.714Z,7.53
2023-01-17T08:33:44.564Z,7.43
2023-01-17T08:36:13.694Z,6.10
2023-01-17T08:38:40.556Z,5.80
2023-01-17T08:41:07.377Z,8.63
2023-01-17T08:43:34.146Z,8.00
2023-01-17T08:46:01.173Z,5.00
2023-01-17T08:48:28.072Z,10.00
2023-01-17T08:50:54.926Z,7.35
2023-01-17T08:53:23.223Z,8.85
2023-01-17T08:55:56.977Z,7.50
2023-01-17T08:58:23.796Z,7.18
2023-01-17T09:00:50.706Z,6.43
2023-01-17T09:03:17.549Z,11.40
2023-01-17T09:05:44.403Z,15.93
2023-01-17T09:08:11.316Z,13.77
2023-01-17T09:10:38.100Z,10.75
2023-01-17T09:13:07.747Z,9.18
2023-01-17T09:15:34.605Z,14.20
2023-01-17T09:18:01.670Z,10.80
2023-01-17T09:20:30.867Z,11.80
2023-01-17T09:22:57.765Z,7.43
2023-01-17T09:25:24.620Z,10.77
2023-01-17T09:27:51.590Z,8.38
2023-01-17T09:30:18.612Z,10.05
2023-01-17T09:32:52.094Z,9.93
2023-01-17T09:35:18.933Z,9.40
2023-01-17T09:37:48.725Z,12.85
2023-01-17T09:40:17.937Z,18.75
2023-01-17T09:42:45.399Z,17.92
2023-01-17T09:45:17.175Z,17.15
2023-01-17T09:47:45.216Z,16.42
2023-01-17T09:50:12.029Z,17.23
2023-01-17T09:52:38.875Z,13.98
2023-01-17T09:55:07.950Z,14.45
2023-01-17T09:57:38.425Z,12.48
2023-01-17T10:00:05.469Z,15.95
2023-01-17T10:02:32.393Z,19.48
2023-01-17T10:05:18.343Z,18.23
2023-01-17T10:08:02.019Z,24.90
2023-01-17T10:10:42.209Z,22.67
2023-01-17T10:13:15.538Z,28.90
2023-01-17T10:15:49.856Z,27.45
2023-01-17T10:18:29.997Z,27.23
2023-01-17T10:21:17.672Z,26.88
2023-01-17T10:23:53.295Z,28.73
2023-01-17T10:26:27.211Z,33.17
2023-01-17T10:29:00.823Z,26.65
2023-01-17T10:31:30.014Z,25.50
2023-01-17T10:33:57.857Z,29.02
2023-01-17T10:36:26.255Z,25.13
2023-01-17T10:38:55.351Z,29.85
2023-01-17T10:41:28.176Z,19.40
2023-01-17T10:44:04.276Z,26.25
2023-01-17T10:46:34.199Z,28.38
2023-01-17T10:49:02.386Z,26.10
2023-01-17T10:51:43.130Z,23.23
2023-01-17T10:54:33.221Z,22.30
2023-01-17T10:57:00.141Z,25.30
2023-01-17T10:59:31.844Z,20.13
2023-01-17T11:01:59.240Z,26.00
2023-01-17T11:04:26.015Z,19.45
2023-01-17T11:07:13.242Z,20.85
2023-01-17T11:09:41.399Z,23.70
2023-01-17T11:12:19.463Z,24.60
2023-01-17T11:15:09.602Z,19.35
2023-01-17T11:17:37.918Z,17.63
2023-01-17T11:20:17.284Z,20.65
2023-01-17T11:22:46.040Z,23.27
2023-01-17T11:25:22.112Z,22.08
2023-01-17T11:28:00.998Z,21.67
2023-01-17T11:30:29.639Z,21.55
2023-01-17T11:33:00.666Z,22.73
2023-01-17T11:35:27.498Z,21.05
2023-01-17T11:38:03.245Z,24.08
2023-01-17T11:40:43.419Z,23.50
2023-01-17T11:43:14.365Z,25.52
2023-01-17T11:45:41.614Z,24.05
2023-01-17T11:48:08.397Z,24.55
2023-01-17T11:50:37.558Z,23.83
2023-01-17T11:53:30.905Z,31.35
2023-01-17T11:55:57.679Z,25.10
2023-01-17T11:58:25.220Z,24.08
2023-01-17T12:01:15.409Z,29.25
2023-01-17T12:04:01.210Z,32.35
2023-01-17T12:06:39.835Z,26.13
2023-01-17T12:09:30.135Z,28.38
2023-01-17T12:12:33.217Z,27.95
2023-01-17T12:15:03.125Z,30.02
2023-01-17T12:17:48.767Z,25.15
2023-01-17T12:20:21.949Z,24.88
2023-01-17T12:23:01.013Z,22.23
2023-01-17T12:25:49.034Z,23.35
2023-01-17T12:28:24.676Z,23.73
2023-01-17T12:30:51.484Z,20.50
2023-01-17T12:33:21.452Z,21.42
2023-01-17T12:36:24.001Z,29.13
2023-01-17T12:38:50.815Z,45.22
2023-01-17T12:41:26.746Z,25.60
2023-01-17T12:43:56.459Z,16.75
2023-01-17T12:46:27.189Z,19.58
2023-01-17T12:48:56.210Z,21.90
2023-01-17T12:51:31.088Z,19.45
2023-01-17T12:54:16.075Z,21.73
2023-01-17T12:56:46.144Z,16.33
2023-01-17T12:59:22.002Z,18.85
2023-01-17T13:01:59.047Z,18.85
2023-01-17T13:04:57.458Z,17.63
2023-01-17T13:07:45.429Z,25.05
2023-01-17T13:10:14.960Z,21.58
2023-01-17T13:12:42.038Z,25.65
2023-01-17T13:15:17.057Z,23.48
2023-01-17T13:17:45.078Z,25.45
2023-01-17T13:20:28.818Z,23.45
2023-01-17T13:22:58.776Z,29.23
2023-01-17T13:25:32.016Z,26.20
2023-01-17T13:28:03.157Z,29.88
2023-01-17T13:30:33.115Z,27.83
2023-01-17T13:33:01.638Z,26.50
2023-01-17T13:35:40.041Z,25.05
2023-01-17T13:38:25.865Z,26.42
2023-01-17T13:41:05.862Z,29.45
2023-01-17T13:43:40.236Z,22.58
2023-01-17T13:46:07.289Z,27.55
2023-01-17T13:48:37.194Z,32.40
2023-01-17T13:51:11.159Z,29.55
2023-01-17T13:53:41.115Z,32.95
2023-01-17T13:56:25.533Z,33.70
2023-01-17T14:01:25.827Z,36.50
2023-01-17T14:03:52.754Z,31.30
2023-01-17T14:06:40.738Z,32.78
2023-01-17T14:09:13.120Z,33.65
2023-01-17T14:11:50.350Z,33.28
2023-01-17T14:14:36.942Z,28.08
2023-01-17T14:17:28.101Z,31.00
2023-01-17T14:20:01.213Z,29.85
2023-01-17T14:22:29.172Z,24.25
2023-01-17T14:24:59.050Z,26.40
2023-01-17T14:27:27.200Z,25.23
2023-01-17T14:29:56.948Z,25.33
2023-01-17T14:32:27.282Z,26.33
2023-01-17T14:34:54.289Z,24.60
2023-01-17T14:37:27.365Z,28.92
2023-01-17T14:39:54.267Z,24.35
2023-01-17T14:42:22.587Z,25.90
2023-01-17T14:44:50.973Z,24.15
2023-01-17T14:47:17.899Z,25.90
2023-01-17T14:49:44.821Z,24.02
2023-01-17T14:52:16.317Z,23.83
2023-01-17T14:54:50.465Z,21.83
2023-01-17T14:57:28.346Z,24.50
2023-01-17T15:00:11.124Z,25.23
2023-01-17T15:02:44.733Z,19.88
2023-01-17T15:05:13.254Z,22.70
2023-01-17T15:07:40.385Z,22.27
2023-01-17T15:10:10.517Z,19.80
2023-01-17T15:12:38.808Z,19.42
2023-01-17T15:15:25.697Z,19.77
2023-01-17T15:17:53.958Z,21.48
2023-01-17T15:20:20.918Z,19.65
2023-01-17T15:22:47.913Z,21.77
2023-01-17T15:25:16.232Z,19.98
2023-01-17T15:27:43.168Z,16.88
2023-01-17T15:30:13.479Z,16.15
2023-01-17T15:32:40.292Z,15.15
2023-01-17T15:35:16.080Z,14.38
2023-01-17T15:37:42.896Z,12.73
2023-01-17T15:40:23.178Z,14.70
2023-01-17T15:42:58.292Z,12.25
2023-01-17T15:45:29.490Z,14.20
2023-01-17T15:47:56.452Z,26.00
2023-01-17T15:50:27.869Z,31.42
2023-01-17T15:53:05.227Z,37.75
2023-01-17T15:55:36.094Z,27.88
2023-01-17T15:58:03.280Z,32.13
2023-01-17T16:00:40.636Z,36.97
2023-01-17T16:03:33.763Z,32.45
2023-01-17T16:06:01.230Z,35.53
2023-01-17T16:08:29.362Z,35.42
2023-01-17T16:10:59.274Z,30.33
2023-01-17T16:13:26.162Z,33.45
2023-01-17T16:15:53.124Z,33.75
2023-01-17T16:18:24.643Z,29.50
2023-01-17T16:21:01.985Z,32.60
2023-01-17T16:23:28.824Z,19.45
2023-01-17T16:25:55.689Z,17.92
2023-01-17T16:28:22.762Z,22.65
2023-01-17T16:30:49.621Z,21.73
2023-01-17T16:33:16.487Z,18.27
2023-01-17T16:35:43.265Z,16.30
2023-01-17T16:38:11.326Z,18.33
2023-01-17T16:40:43.925Z,20.67
2023-01-17T16:43:13.720Z,17.33
2023-01-17T16:45:41.526Z,18.48
2023-01-17T16:48:08.827Z,16.67
2023-01-17T16:50:35.648Z,14.57
2023-01-17T16:53:02.450Z,13.50
2023-01-17T16:55:29.276Z,18.55
2023-01-17T16:57:58.038Z,17.08
2023-01-17T17:00:26.844Z,19.90
2023-01-17T17:02:53.788Z,19.60
2023-01-17T17:05:20.651Z,13.95
2023-01-17T17:07:51.543Z,14.85
2023-01-17T17:10:19.883Z,14.93
2023-01-17T17:12:46.749Z,11.93
2023-01-17T17:15:14.074Z,11.77
2023-01-17T17:17:41.808Z,17.98
2023-01-17T17:20:12.830Z,16.92
2023-01-17T17:22:40.092Z,15.32
2023-01-17T17:25:07.327Z,14.02
2023-01-17T17:27:34.105Z,16.15
2023-01-17T17:30:00.943Z,13.25
2023-01-17T17:32:28.179Z,14.38
2023-01-17T17:34:55.017Z,17.17
2023-01-17T17:37:23.544Z,13.18
2023-01-17T17:39:50.429Z,13.50
2023-01-17T17:42:19.718Z,11.15
2023-01-17T17:44:46.552Z,13.82
2023-01-17T17:47:13.480Z,12.43
2023-01-17T17:49:40.255Z,17.08
2023-01-17T17:52:07.389Z,10.50
2023-01-17T17:54:34.517Z,14.93
2023-01-17T17:57:01.479Z,11.45
2023-01-17T17:59:28.574Z,13.57
2023-01-17T18:01:55.639Z,20.98
2023-01-17T18:04:24.856Z,20.58
2023-01-17T18:06:51.734Z,12.80
2023-01-17T18:09:18.679Z,16.05
2023-01-17T18:11:45.520Z,15.20
2023-01-17T18:14:13.183Z,13.25
2023-01-17T18:16:51.383Z,19.73
2023-01-17T18:22:07.877Z,14.35
2023-01-17T18:24:43.129Z,14.18
2023-01-17T18:27:20.958Z,14.35
2023-01-17T18:30:01.111Z,21.30
2023-01-17T18:35:23.987Z,18.38
2023-01-17T18:40:40.755Z,12.70
2023-01-17T18:43:22.092Z,16.67
2023-01-17T18:46:04.071Z,15.05
2023-01-17T18:48:45.140Z,16.55
2023-01-17T18:51:22.536Z,16.50
2023-01-17T18:54:07.245Z,14.30
2023-01-17T18:59:31.773Z,17.95
2023-01-17T19:02:04.590Z,16.52
2023-01-17T19:07:40.529Z,17.55
2023-01-17T19:10:12.139Z,18.50
2023-01-17T19:12:51.144Z,17.88
2023-01-17T19:15:33.302Z,15.88
2023-01-17T19:18:04.896Z,18.88
2023-01-17T19:20:36.350Z,17.15
2023-01-17T19:23:08.941Z,17.73
2023-01-17T19:25:39.537Z,19.73
2023-01-17T19:28:09.414Z,18.20
2023-01-17T19:30:56.674Z,20.13
2023-01-17T19:36:26.636Z,16.17
2023-01-17T19:39:05.884Z,15.85
2023-01-17T19:41:44.533Z,16.35
2023-01-17T19:44:16.025Z,18.35
2023-01-17T19:46:58.118Z,15.70
2023-01-17T19:49:26.022Z,21.10
2023-01-17T19:52:05.099Z,16.75
2023-01-17T19:54:36.025Z,19.77
2023-01-17T19:57:06.513Z,16.10
2023-01-17T20:02:20.511Z,14.68
2023-01-17T20:10:32.085Z,19.63
2023-01-17T20:13:15.971Z,16.48
2023-01-17T20:15:49.302Z,15.02
2023-01-17T20:18:20.993Z,14.07
2023-01-17T20:20:58.923Z,18.23
2023-01-17T20:23:32.664Z,19.75
2023-01-17T20:26:08.056Z,18.98
2023-01-17T20:34:07.371Z,15.07
2023-01-17T20:36:42.127Z,20.27
2023-01-17T20:39:18.883Z,21.08
2023-01-17T20:41:50.707Z,18.23
2023-01-17T20:44:33.880Z,21.88
2023-01-17T20:47:05.173Z,15.77
2023-01-17T20:49:37.960Z,17.63
2023-01-17T20:52:10.786Z,17.35
2023-01-17T20:54:49.209Z,22.65
2023-01-17T20:59:50.326Z,21.75
2023-01-17T21:02:17.294Z,21.98
2023-01-17T21:04:45.496Z,23.50
2023-01-17T21:07:12.334Z,18.88
2023-01-17T21:09:39.276Z,20.48
2023-01-17T21:12:06.091Z,20.92
2023-01-17T21:14:32.901Z,22.02
2023-01-17T21:16:59.860Z,22.13
2023-01-17T21:19:26.859Z,23.13
2023-01-17T21:21:53.782Z,17.48
2023-01-17T21:24:20.622Z,18.38
2023-01-17T21:26:47.547Z,17.75
2023-01-17T21:29:16.227Z,19.27
2023-01-17T21:31:43.384Z,18.73
2023-01-17T21:34:11.117Z,18.05
2023-01-17T21:36:39.109Z,17.95
2023-01-17T21:39:07.337Z,13.73
2023-01-17T21:41:35.825Z,17.67
2023-01-17T21:44:03.941Z,15.73
2023-01-17T21:46:30.800Z,14.73
2023-01-17T21:48:57.836Z,19.08
2023-01-17T21:51:24.891Z,17.42
2023-01-17T21:53:51.713Z,16.38
2023-01-17T21:56:37.149Z,16.80
2023-01-17T21:59:04.058Z,12.63
2023-01-17T22:01:33.042Z,21.45
2023-01-17T22:04:01.187Z,11.27
2023-01-17T22:06:29.291Z,14.43
2023-01-17T22:08:56.255Z,14.18
2023-01-17T22:11:24.397Z,13.30
2023-01-17T22:13:51.485Z,13.73
2023-01-17T22:16:20.059Z,17.92
2023-01-17T22:18:47.243Z,13.35
2023-01-17T22:21:15.240Z,12.80
2023-01-17T22:24:00.121Z,12.75
2023-01-17T22:26:28.666Z,14.73
2023-01-17T22:28:55.768Z,10.98
2023-01-17T22:31:24.223Z,12.57
2023-01-17T22:33:55.718Z,13.25
2023-01-17T22:36:23.158Z,13.52
2023-01-17T22:38:50.664Z,13.77
2023-01-17T22:41:20.146Z,11.63
2023-01-17T22:43:48.347Z,14.07
2023-01-17T22:46:16.607Z,14.70
2023-01-17T22:48:43.846Z,14.15
2023-01-17T22:51:11.887Z,12.38
2023-01-17T22:53:42.428Z,15.70
2023-01-17T22:56:10.423Z,10.23
2023-01-17T22:58:37.207Z,13.32
2023-01-17T23:01:08.251Z,14.95
2023-01-17T23:03:35.168Z,14.77
2023-01-17T23:06:07.955Z,16.70
2023-01-17T23:08:35.073Z,16.25
2023-01-17T23:11:40.197Z,17.25
2023-01-17T23:14:19.032Z,16.80
2023-01-17T23:17:06.148Z,15.43
2023-01-17T23:19:36.786Z,18.52
2023-01-17T23:22:17.500Z,18.02
2023-01-17T23:25:07.409Z,19.70
2023-01-17T23:27:57.183Z,14.48
2023-01-17T23:30:25.551Z,19.15
2023-01-17T23:32:53.667Z,15.85
2023-01-17T23:35:21.762Z,17.63
2023-01-17T23:38:07.255Z,19.33
2023-01-17T23:40:35.121Z,18.20
2023-01-17T23:43:20.576Z,11.50
2023-01-17T23:45:47.617Z,15.82
2023-01-17T23:48:14.481Z,16.00
2023-01-17T23:50:42.652Z,16.25
2023-01-17T23:53:09.602Z,15.13
2023-01-17T23:55:37.499Z,11.38
2023-01-17T23:58:08.564Z,16.10
